createdAt,value
2023-03-08T00:01:30.347Z,1.41
2023-03-08T00:04:00.259Z,1.25
2023-03-08T00:06:29.546Z,1.35
2023-03-08T00:08:59.976Z,1.36
2023-03-08T00:11:31.038Z,1.35
2023-03-08T00:14:01.671Z,1.36
2023-03-08T00:16:30.399Z,1.35
2023-03-08T00:18:59.094Z,1.25
2023-03-08T00:21:27.837Z,1.30
2023-03-08T00:23:56.546Z,1.29
2023-03-08T00:26:25.388Z,1.30
2023-03-08T00:28:55.264Z,1.29
2023-03-08T00:31:24.059Z,1.24
2023-03-08T00:33:55.872Z,1.22
2023-03-08T00:36:24.721Z,1.19
2023-03-08T00:38:53.513Z,1.17
2023-03-08T00:41:22.361Z,1.09
2023-03-08T00:43:51.365Z,1.06
2023-03-08T00:46:21.240Z,1.05
2023-03-08T00:48:50.166Z,1.06
2023-03-08T00:51:21.617Z,1.13
2023-03-08T00:53:50.638Z,1.20
2023-03-08T00:56:19.683Z,1.17
2023-03-08T00:58:48.410Z,1.13
2023-03-08T01:01:20.483Z,1.14
2023-03-08T01:03:53.600Z,1.09
2023-03-08T01:06:24.957Z,1.09
2023-03-08T01:08:53.797Z,1.12
2023-03-08T01:11:26.061Z,0.83
2023-03-08T01:13:56.117Z,0.93
2023-03-08T01:16:28.954Z,1.07
2023-03-08T01:18:59.677Z,1.07
2023-03-08T01:21:29.932Z,1.09
2023-03-08T01:23:59.152Z,1.11
2023-03-08T01:26:30.162Z,1.09
2023-03-08T01:28:59.245Z,1.06
2023-03-08T01:31:31.803Z,0.46
2023-03-08T01:34:02.107Z,1.01
2023-03-08T01:36:30.914Z,0.90
2023-03-08T01:39:02.440Z,0.79
2023-03-08T01:41:33.216Z,0.70
2023-03-08T01:44:03.346Z,0.61
2023-03-08T01:46:35.728Z,0.58
2023-03-08T01:49:29.880Z,-0.09
2023-03-08T01:52:07.024Z,0.10
2023-03-08T01:54:41.249Z,0.53
2023-03-08T01:57:18.683Z,0.38
2023-03-08T01:59:50.805Z,0.45
2023-03-08T02:02:28.526Z,0.90
2023-03-08T02:04:58.009Z,1.03
2023-03-08T02:07:28.534Z,1.16
2023-03-08T02:09:57.386Z,1.22
2023-03-08T02:12:26.595Z,1.10
2023-03-08T02:14:56.307Z,1.27
2023-03-08T02:17:27.346Z,1.32
2023-03-08T02:20:03.900Z,1.36
2023-03-08T02:22:32.741Z,1.42
2023-03-08T02:25:02.556Z,1.44
2023-03-08T02:27:31.399Z,1.42
2023-03-08T02:30:03.610Z,1.43
2023-03-08T02:32:32.096Z,1.32
2023-03-08T02:35:02.978Z,1.48
2023-03-08T02:37:33.047Z,1.24
2023-03-08T02:40:03.166Z,1.49
2023-03-08T02:42:31.851Z,1.45
2023-03-08T02:45:00.589Z,1.45
2023-03-08T02:47:29.589Z,1.44
2023-03-08T02:49:58.348Z,1.45
2023-03-08T02:52:27.158Z,1.46
2023-03-08T02:54:55.976Z,1.43
2023-03-08T02:57:27.617Z,1.38
2023-03-08T02:59:57.183Z,1.35
2023-03-08T03:02:28.488Z,1.29
2023-03-08T03:05:00.313Z,1.30
2023-03-08T03:07:30.081Z,1.26
2023-03-08T03:09:58.924Z,1.18
2023-03-08T03:12:28.746Z,1.03
2023-03-08T03:14:57.236Z,1.03
2023-03-08T03:17:25.822Z,0.81
2023-03-08T03:19:54.516Z,1.03
2023-03-08T03:22:23.230Z,1.03
2023-03-08T03:24:52.673Z,1.01
2023-03-08T03:27:21.689Z,1.01
2023-03-08T03:29:51.894Z,0.97
2023-03-08T03:32:20.793Z,0.96
2023-03-08T03:34:50.060Z,0.89
2023-03-08T03:37:21.591Z,0.81
2023-03-08T03:39:50.365Z,0.73
2023-03-08T03:42:20.607Z,0.63
2023-03-08T03:45:08.251Z,0.58
2023-03-08T03:47:37.739Z,0.48
2023-03-08T03:50:10.405Z,0.37
2023-03-08T03:52:52.971Z,0.22
2023-03-08T03:55:22.609Z,0.07
2023-03-08T03:57:51.916Z,-0.04
2023-03-08T04:00:23.099Z,-0.14
2023-03-08T04:03:06.484Z,-0.16
2023-03-08T04:05:39.949Z,-0.15
2023-03-08T04:08:10.006Z,-0.11
2023-03-08T04:10:43.025Z,-0.07
2023-03-08T04:13:13.453Z,0.02
2023-03-08T04:15:45.050Z,0.09
2023-03-08T04:18:15.933Z,0.15
2023-03-08T04:20:48.222Z,0.24
2023-03-08T04:23:18.729Z,0.30
2023-03-08T04:25:49.427Z,0.32
2023-03-08T04:28:19.080Z,0.31
2023-03-08T04:30:49.564Z,-0.16
2023-03-08T04:33:20.193Z,0.21
2023-03-08T04:35:51.836Z,0.21
2023-03-08T04:38:24.253Z,0.24
2023-03-08T04:41:11.743Z,0.27
2023-03-08T04:44:03.235Z,0.33
2023-03-08T04:46:43.924Z,0.36
2023-03-08T04:49:17.590Z,0.43
2023-03-08T04:51:52.473Z,0.47
2023-03-08T04:54:21.589Z,0.46
2023-03-08T04:56:56.163Z,0.43
2023-03-08T04:59:27.005Z,0.35
2023-03-08T05:02:00.308Z,0.30
2023-03-08T05:04:31.629Z,0.26
2023-03-08T05:07:21.574Z,0.26
2023-03-08T05:09:52.031Z,0.27
2023-03-08T05:12:20.755Z,0.25
2023-03-08T05:14:56.250Z,0.21
2023-03-08T05:17:28.453Z,-0.14
2023-03-08T05:19:57.633Z,0.15
2023-03-08T05:22:44.991Z,0.08
2023-03-08T05:25:20.427Z,0.27
2023-03-08T05:27:49.275Z,0.35
2023-03-08T05:30:19.108Z,0.26
2023-03-08T05:32:48.965Z,0.29
2023-03-08T05:35:17.563Z,0.42
2023-03-08T05:37:46.229Z,0.79
2023-03-08T05:40:15.363Z,0.86
2023-03-08T05:42:48.056Z,0.95
2023-03-08T05:45:17.919Z,0.95
2023-03-08T05:47:48.347Z,1.01
2023-03-08T05:50:17.337Z,1.09
2023-03-08T05:52:47.530Z,1.15
2023-03-08T05:55:21.005Z,1.23
2023-03-08T05:57:50.066Z,1.28
2023-03-08T06:00:19.784Z,0.97
2023-03-08T06:02:55.915Z,1.33
2023-03-08T06:05:25.510Z,1.36
2023-03-08T06:07:57.526Z,1.39
2023-03-08T06:10:26.888Z,1.41
2023-03-08T06:12:56.469Z,-0.03
2023-03-08T06:15:26.699Z,1.48
2023-03-08T06:17:56.718Z,1.04
2023-03-08T06:20:28.221Z,1.63
2023-03-08T06:22:57.752Z,1.64
2023-03-08T06:25:29.406Z,1.78
2023-03-08T06:27:58.131Z,1.84
2023-03-08T06:30:35.757Z,1.85
2023-03-08T06:33:07.352Z,1.86
2023-03-08T06:35:36.339Z,1.85
2023-03-08T06:38:07.163Z,1.87
2023-03-08T06:40:36.613Z,1.94
2023-03-08T06:43:05.724Z,2.04
2023-03-08T06:45:34.923Z,2.08
2023-03-08T06:48:03.703Z,1.88
2023-03-08T06:50:34.124Z,1.71
2023-03-08T06:53:03.038Z,1.65
2023-03-08T06:55:46.807Z,1.56
2023-03-08T06:58:16.647Z,1.46
2023-03-08T07:00:45.439Z,1.47
2023-03-08T07:03:14.863Z,1.43
2023-03-08T07:05:44.652Z,1.42
2023-03-08T07:08:13.356Z,1.46
2023-03-08T07:10:47.780Z,1.58
2023-03-08T07:13:17.529Z,1.67
2023-03-08T07:15:46.342Z,1.78
2023-03-08T07:18:16.078Z,1.83
2023-03-08T07:20:46.298Z,1.88
2023-03-08T07:23:14.720Z,1.91
2023-03-08T07:25:43.170Z,1.91
2023-03-08T07:28:11.866Z,2.04
2023-03-08T07:30:47.098Z,2.19
2023-03-08T07:33:16.018Z,2.47
2023-03-08T07:35:46.057Z,2.51
2023-03-08T07:38:15.208Z,2.67
2023-03-08T07:40:44.325Z,2.93
2023-03-08T07:43:13.410Z,3.08
2023-03-08T07:45:54.565Z,3.22
2023-03-08T07:48:23.333Z,3.22
2023-03-08T07:50:55.519Z,3.15
2023-03-08T07:53:24.320Z,3.01
2023-03-08T07:55:53.057Z,2.92
2023-03-08T07:58:22.343Z,3.07
2023-03-08T08:00:51.096Z,3.13
2023-03-08T08:03:19.878Z,3.29
2023-03-08T08:05:48.652Z,3.62
2023-03-08T08:08:18.961Z,3.88
2023-03-08T08:10:47.689Z,4.05
2023-03-08T08:13:16.428Z,4.01
2023-03-08T08:15:45.215Z,3.77
2023-03-08T08:18:13.978Z,3.96
2023-03-08T08:20:42.737Z,4.04
2023-03-08T08:23:11.545Z,4.16
2023-03-08T08:25:43.701Z,4.00
2023-03-08T08:28:15.534Z,3.87
2023-03-08T08:30:44.502Z,3.70
2023-03-08T08:33:13.298Z,3.54
2023-03-08T08:35:43.592Z,3.50
2023-03-08T08:38:12.625Z,3.47
2023-03-08T08:40:44.169Z,3.34
2023-03-08T08:43:12.998Z,3.21
2023-03-08T08:45:45.711Z,2.79
2023-03-08T08:48:15.282Z,3.15
2023-03-08T08:50:44.387Z,3.28
2023-03-08T08:53:13.307Z,3.49
2023-03-08T08:55:45.548Z,3.78
2023-03-08T08:58:15.254Z,4.14
2023-03-08T09:00:44.505Z,4.51
2023-03-08T09:03:13.021Z,4.87
2023-03-08T09:05:44.395Z,5.18
2023-03-08T09:08:14.168Z,5.04
2023-03-08T09:10:44.588Z,5.64
2023-03-08T09:13:14.413Z,5.86
2023-03-08T09:15:43.243Z,5.99
2023-03-08T09:18:12.142Z,6.15
2023-03-08T09:20:40.837Z,6.17
2023-03-08T09:23:10.257Z,6.36
2023-03-08T09:25:39.155Z,6.40
2023-03-08T09:28:09.978Z,6.41
2023-03-08T09:30:38.809Z,6.45
2023-03-08T09:33:07.725Z,6.34
2023-03-08T09:35:36.511Z,6.45
2023-03-08T09:38:05.343Z,6.42
2023-03-08T09:40:46.763Z,6.58
2023-03-08T09:43:28.370Z,6.76
2023-03-08T09:45:57.404Z,6.97
2023-03-08T09:48:32.033Z,6.39
2023-03-08T09:51:08.249Z,7.46
2023-03-08T09:53:42.458Z,6.82
2023-03-08T09:56:27.776Z,7.80
2023-03-08T09:59:03.689Z,7.82
2023-03-08T10:01:43.548Z,7.27
2023-03-08T10:04:48.295Z,7.14
2023-03-08T10:07:34.610Z,7.95
2023-03-08T10:10:23.660Z,7.25
2023-03-08T10:13:20.066Z,8.05
2023-03-08T10:15:55.555Z,7.99
2023-03-08T10:18:33.218Z,8.23
2023-03-08T10:21:03.637Z,8.67
2023-03-08T10:23:34.424Z,8.95
2023-03-08T10:26:07.112Z,8.84
2023-03-08T10:28:35.956Z,8.80
2023-03-08T10:31:22.614Z,8.56
2023-03-08T10:34:03.370Z,7.72
2023-03-08T10:36:32.413Z,8.52
2023-03-08T10:39:08.696Z,7.66
2023-03-08T10:41:46.642Z,8.15
2023-03-08T10:44:29.900Z,8.41
2023-03-08T10:46:59.744Z,8.44
2023-03-08T10:49:28.476Z,8.17
2023-03-08T10:51:59.931Z,8.00
2023-03-08T10:54:30.045Z,7.84
2023-03-08T10:57:01.348Z,7.58
2023-03-08T10:59:33.475Z,7.50
2023-03-08T11:02:22.474Z,6.38
2023-03-08T11:04:56.159Z,6.76
2023-03-08T11:07:27.905Z,6.66
2023-03-08T11:10:17.951Z,6.67
2023-03-08T11:12:47.838Z,6.81
2023-03-08T11:15:17.931Z,6.90
2023-03-08T11:17:57.275Z,7.16
2023-03-08T11:20:32.834Z,7.67
2023-03-08T11:23:25.039Z,8.04
2023-03-08T11:26:03.769Z,8.38
2023-03-08T11:29:19.084Z,8.37
2023-03-08T11:32:01.628Z,8.76
2023-03-08T11:35:08.363Z,8.80
2023-03-08T11:37:45.402Z,8.71
2023-03-08T11:40:26.393Z,8.57
2023-03-08T11:43:16.990Z,8.18
2023-03-08T11:45:59.192Z,7.90
2023-03-08T11:49:11.404Z,7.67
2023-03-08T11:51:54.034Z,7.55
2023-03-08T11:54:43.136Z,7.26
2023-03-08T11:57:15.079Z,7.13
2023-03-08T11:59:49.439Z,7.01
2023-03-08T12:02:23.311Z,7.00
2023-03-08T12:05:04.796Z,6.94
2023-03-08T12:07:41.313Z,7.18
2023-03-08T12:10:19.934Z,7.17
2023-03-08T12:12:56.518Z,7.24
2023-03-08T12:15:32.676Z,7.37
2023-03-08T12:18:13.798Z,7.29
2023-03-08T12:20:46.450Z,7.46
2023-03-08T12:23:27.640Z,7.05
2023-03-08T12:26:08.482Z,7.56
2023-03-08T12:28:44.999Z,7.84
2023-03-08T12:31:27.747Z,7.71
2023-03-08T12:33:59.340Z,7.55
2023-03-08T12:36:39.570Z,7.25
2023-03-08T12:39:26.560Z,6.89
2023-03-08T12:42:14.996Z,6.57
2023-03-08T12:44:44.691Z,5.79
2023-03-08T12:47:24.098Z,6.50
2023-03-08T12:49:56.406Z,5.11
2023-03-08T12:52:35.037Z,5.53
2023-03-08T12:55:18.117Z,6.47
2023-03-08T12:57:54.934Z,6.67
2023-03-08T13:00:31.244Z,6.53
2023-03-08T13:03:06.689Z,7.19
2023-03-08T13:05:38.648Z,6.72
2023-03-08T13:08:29.911Z,7.08
2023-03-08T13:11:16.268Z,6.77
2023-03-08T13:13:53.815Z,6.81
2023-03-08T13:16:36.497Z,6.27
2023-03-08T13:19:21.975Z,6.59
2023-03-08T13:36:18.183Z,5.09
2023-03-08T13:38:57.324Z,5.05
2023-03-08T13:41:35.024Z,4.41
2023-03-08T13:44:05.135Z,4.69
2023-03-08T13:46:34.310Z,4.72
2023-03-08T13:49:03.391Z,4.80
2023-03-08T13:51:33.270Z,4.18
2023-03-08T13:54:02.185Z,4.77
2023-03-08T13:56:31.045Z,4.76
2023-03-08T13:59:01.988Z,4.76
2023-03-08T14:01:30.838Z,4.58
2023-03-08T14:04:01.231Z,4.15
2023-03-08T14:06:35.670Z,4.23
2023-03-08T14:09:04.769Z,4.15
2023-03-08T14:11:38.420Z,3.98
2023-03-08T14:14:15.316Z,4.05
2023-03-08T14:16:44.555Z,3.76
2023-03-08T14:19:25.943Z,3.36
2023-03-08T14:22:00.297Z,3.49
2023-03-08T14:24:32.301Z,3.65
2023-03-08T14:27:03.308Z,3.54
2023-03-08T14:29:34.600Z,3.25
2023-03-08T14:32:08.029Z,3.61
2023-03-08T14:34:41.495Z,3.15
2023-03-08T14:37:24.076Z,3.14
2023-03-08T14:39:56.222Z,3.13
2023-03-08T14:42:31.578Z,3.32
2023-03-08T14:45:03.940Z,3.13
2023-03-08T14:47:35.616Z,3.20
2023-03-08T14:50:25.372Z,3.36
2023-03-08T14:52:57.165Z,3.07
2023-03-08T14:55:28.989Z,3.01
2023-03-08T14:58:01.437Z,3.08
2023-03-08T15:00:31.346Z,2.67
2023-03-08T15:03:00.972Z,2.78
2023-03-08T15:05:31.261Z,2.91
2023-03-08T15:08:01.813Z,2.73
2023-03-08T15:10:35.733Z,2.63
2023-03-08T15:13:05.310Z,2.58
2023-03-08T15:15:34.155Z,2.54
2023-03-08T15:18:02.882Z,2.64
2023-03-08T15:20:32.159Z,2.75
2023-03-08T15:23:07.204Z,2.69
2023-03-08T15:25:37.764Z,2.65
2023-03-08T15:28:07.491Z,2.55
2023-03-08T15:30:36.337Z,2.38
2023-03-08T15:33:05.099Z,2.30
2023-03-08T15:35:34.117Z,2.29
2023-03-08T15:38:04.366Z,2.34
2023-03-08T15:40:35.781Z,2.30
2023-03-08T15:43:04.697Z,2.40
2023-03-08T15:45:33.502Z,2.53
2023-03-08T15:48:04.162Z,2.51
2023-03-08T15:50:34.531Z,2.54
2023-03-08T15:53:04.833Z,2.64
2023-03-08T15:55:34.019Z,2.49
2023-03-08T15:58:02.748Z,2.42
2023-03-08T16:00:32.421Z,2.37
2023-03-08T16:03:01.170Z,2.23
2023-03-08T16:05:31.549Z,2.32
2023-03-08T16:08:04.290Z,2.24
2023-03-08T16:10:40.500Z,2.28
2023-03-08T16:13:09.566Z,2.26
2023-03-08T16:15:41.889Z,2.33
2023-03-08T16:18:10.655Z,2.33
2023-03-08T16:20:42.032Z,1.75
2023-03-08T16:23:13.169Z,2.36
2023-03-08T16:25:43.740Z,2.32
2023-03-08T16:28:13.234Z,2.20
2023-03-08T16:30:43.003Z,2.21
2023-03-08T16:33:12.203Z,2.30
2023-03-08T16:35:41.918Z,2.22
2023-03-08T16:38:12.524Z,2.27
2023-03-08T16:40:41.910Z,2.18
2023-03-08T16:43:11.219Z,2.23
2023-03-08T16:45:54.609Z,2.08
2023-03-08T16:48:24.089Z,2.07
2023-03-08T16:50:55.244Z,1.93
2023-03-08T16:53:27.501Z,2.09
2023-03-08T16:55:56.806Z,2.06
2023-03-08T16:58:32.808Z,2.06
2023-03-08T17:01:02.236Z,2.01
2023-03-08T17:03:31.303Z,2.00
2023-03-08T17:06:00.075Z,2.02
2023-03-08T17:08:31.108Z,2.03
2023-03-08T17:11:00.572Z,2.06
2023-03-08T17:13:29.401Z,2.06
2023-03-08T17:15:59.225Z,2.05
2023-03-08T17:18:28.164Z,2.03
2023-03-08T17:20:58.000Z,2.06
2023-03-08T17:23:28.775Z,2.16
2023-03-08T17:26:00.098Z,0.86
2023-03-08T17:28:29.435Z,2.11
2023-03-08T17:30:58.277Z,2.04
2023-03-08T17:33:27.923Z,2.04
2023-03-08T17:35:59.297Z,1.47
2023-03-08T17:38:29.015Z,2.08
2023-03-08T17:40:59.403Z,2.06
2023-03-08T17:43:28.742Z,2.00
2023-03-08T17:46:02.329Z,2.00
2023-03-08T17:48:32.264Z,2.09
2023-03-08T17:51:04.540Z,1.99
2023-03-08T17:53:34.670Z,1.90
2023-03-08T17:56:07.971Z,1.94
2023-03-08T17:58:37.518Z,1.94
2023-03-08T18:01:10.980Z,1.94
2023-03-08T18:03:40.432Z,1.96
2023-03-08T18:06:15.965Z,1.98
2023-03-08T18:08:44.815Z,1.99
2023-03-08T18:11:14.732Z,1.80
2023-03-08T18:13:43.507Z,1.92
2023-03-08T18:16:12.444Z,1.97
2023-03-08T18:18:41.782Z,2.01
2023-03-08T18:21:14.069Z,1.90
2023-03-08T18:23:44.413Z,1.94
2023-03-08T18:26:17.321Z,1.67
2023-03-08T18:28:46.646Z,1.83
2023-03-08T18:31:20.427Z,1.79
2023-03-08T18:33:49.540Z,1.81
2023-03-08T18:36:19.637Z,1.88
2023-03-08T18:38:48.991Z,1.87
2023-03-08T18:41:22.503Z,1.93
2023-03-08T18:43:54.659Z,1.74
2023-03-08T18:46:28.887Z,1.81
2023-03-08T18:48:59.101Z,1.84
2023-03-08T18:51:28.113Z,1.66
2023-03-08T18:53:59.204Z,1.52
2023-03-08T18:56:31.212Z,1.60
2023-03-08T18:59:08.923Z,1.61
2023-03-08T19:01:38.486Z,1.67
2023-03-08T19:04:08.383Z,1.69
2023-03-08T19:06:38.005Z,1.64
2023-03-08T19:09:11.977Z,1.38
2023-03-08T19:11:43.031Z,1.40
2023-03-08T19:14:13.667Z,1.65
2023-03-08T19:16:42.858Z,1.56
2023-03-08T19:19:14.777Z,1.29
2023-03-08T19:21:46.454Z,0.91
2023-03-08T19:24:17.946Z,1.14
2023-03-08T19:26:53.328Z,1.41
2023-03-08T19:29:25.229Z,1.14
2023-03-08T19:31:56.539Z,1.35
2023-03-08T19:34:28.688Z,1.39
2023-03-08T19:36:58.457Z,1.37
2023-03-08T19:39:30.785Z,1.38
2023-03-08T19:42:03.891Z,1.10
2023-03-08T19:44:34.207Z,1.43
2023-03-08T19:47:04.589Z,1.38
2023-03-08T19:49:36.426Z,1.35
2023-03-08T19:52:07.955Z,1.36
2023-03-08T19:54:37.342Z,1.38
2023-03-08T19:57:07.918Z,1.41
2023-03-08T19:59:37.918Z,1.39
2023-03-08T20:02:09.089Z,1.37
2023-03-08T20:04:37.942Z,1.17
2023-03-08T20:07:06.498Z,1.24
2023-03-08T20:09:35.416Z,1.23
2023-03-08T20:12:04.361Z,1.30
2023-03-08T20:14:34.390Z,1.24
2023-03-08T20:17:05.018Z,1.36
2023-03-08T20:19:34.320Z,1.32
2023-03-08T20:22:03.041Z,0.99
2023-03-08T20:24:32.455Z,1.26
2023-03-08T20:27:02.015Z,1.23
2023-03-08T20:29:30.740Z,1.29
2023-03-08T20:32:00.717Z,1.23
2023-03-08T20:34:29.539Z,1.19
2023-03-08T20:36:57.982Z,1.21
2023-03-08T20:39:26.460Z,1.18
2023-03-08T20:41:56.084Z,1.17
2023-03-08T20:44:24.871Z,1.17
2023-03-08T20:46:53.609Z,1.23
2023-03-08T20:49:24.319Z,0.80
2023-03-08T20:51:53.032Z,1.29
2023-03-08T20:54:21.771Z,1.22
2023-03-08T20:56:50.529Z,1.20
2023-03-08T20:59:23.120Z,1.19
2023-03-08T21:01:52.306Z,1.24
2023-03-08T21:04:22.793Z,1.30
2023-03-08T21:06:51.883Z,1.26
2023-03-08T21:09:20.977Z,1.27
2023-03-08T21:11:49.958Z,1.28
2023-03-08T21:14:18.746Z,1.28
2023-03-08T21:16:47.584Z,1.33
2023-03-08T21:19:17.026Z,1.29
2023-03-08T21:21:47.181Z,1.36
2023-03-08T21:24:18.267Z,1.30
2023-03-08T21:26:47.000Z,1.24
2023-03-08T21:29:19.183Z,1.30
2023-03-08T21:31:50.735Z,1.30
2023-03-08T21:34:21.258Z,1.40
2023-03-08T21:36:51.465Z,1.33
2023-03-08T21:39:20.455Z,1.36
2023-03-08T21:41:50.561Z,1.35
2023-03-08T21:44:21.818Z,1.27
2023-03-08T21:46:51.894Z,1.31
2023-03-08T21:49:23.425Z,0.97
2023-03-08T21:51:56.166Z,1.41
2023-03-08T21:54:26.784Z,0.92
2023-03-08T21:56:56.020Z,1.35
2023-03-08T21:59:27.027Z,1.32
2023-03-08T22:01:58.848Z,0.98
2023-03-08T22:04:28.559Z,1.40
2023-03-08T22:06:59.082Z,1.38
2023-03-08T22:09:29.200Z,1.38
2023-03-08T22:11:59.312Z,1.42
2023-03-08T22:14:28.224Z,1.02
2023-03-08T22:16:57.119Z,1.43
2023-03-08T22:19:25.839Z,1.46
2023-03-08T22:21:54.537Z,1.47
2023-03-08T22:24:24.320Z,1.43
2023-03-08T22:26:52.725Z,1.48
2023-03-08T22:29:21.488Z,1.43
2023-03-08T22:31:50.285Z,1.53
2023-03-08T22:34:19.121Z,1.61
2023-03-08T22:36:47.899Z,1.58
2023-03-08T22:39:16.722Z,1.55
2023-03-08T22:41:46.608Z,1.51
2023-03-08T22:44:16.467Z,1.51
2023-03-08T22:46:45.235Z,1.43
2023-03-08T22:49:16.082Z,1.45
2023-03-08T22:51:45.708Z,1.44
2023-03-08T22:54:17.984Z,1.26
2023-03-08T22:56:49.998Z,1.38
2023-03-08T22:59:18.883Z,1.40
2023-03-08T23:01:47.655Z,1.45
2023-03-08T23:04:16.532Z,1.38
2023-03-08T23:06:47.642Z,1.48
2023-03-08T23:09:18.102Z,1.42
2023-03-08T23:11:48.326Z,1.35
2023-03-08T23:14:17.258Z,1.36
2023-03-08T23:16:47.713Z,1.37
2023-03-08T23:19:21.605Z,1.32
2023-03-08T23:21:50.577Z,1.32
2023-03-08T23:24:19.483Z,1.29
2023-03-08T23:26:49.584Z,1.41
2023-03-08T23:29:18.367Z,1.32
2023-03-08T23:31:47.710Z,1.41
2023-03-08T23:34:16.477Z,1.31
2023-03-08T23:36:45.293Z,1.21
2023-03-08T23:39:13.934Z,0.88
2023-03-08T23:41:42.926Z,1.27
2023-03-08T23:44:13.927Z,1.18
2023-03-08T23:46:46.181Z,1.28
2023-03-08T23:49:16.952Z,1.28
2023-03-08T23:51:46.240Z,1.19
2023-03-08T23:54:14.982Z,1.24
2023-03-08T23:56:44.219Z,1.29
2023-03-08T23:59:18.763Z,0.80
